createdAt,value
2017-10-14T00:01:21.679Z,91.35
2017-10-14T00:03:49.097Z,91.10
2017-10-14T00:06:16.639Z,91.03
2017-10-14T00:08:44.134Z,91.12
2017-10-14T00:11:11.573Z,91.97
2017-10-14T00:13:39.052Z,91.85
2017-10-14T00:16:06.497Z,91.71
2017-10-14T00:18:33.991Z,91.58
2017-10-14T00:21:02.204Z,91.68
2017-10-14T00:23:29.618Z,91.93
2017-10-14T00:25:57.043Z,91.99
2017-10-14T00:28:24.523Z,92.11
2017-10-14T00:30:52.594Z,91.97
2017-10-14T00:33:20.013Z,91.98
2017-10-14T00:35:47.817Z,91.71
2017-10-14T00:38:15.231Z,91.56
2017-10-14T00:40:42.658Z,91.33
2017-10-14T00:43:10.135Z,91.20
2017-10-14T00:45:37.554Z,91.19
2017-10-14T00:48:05.822Z,90.92
2017-10-14T00:50:33.316Z,90.95
2017-10-14T00:53:00.745Z,90.89
2017-10-14T00:55:28.165Z,90.98
2017-10-14T00:57:56.015Z,91.16
2017-10-14T01:00:23.490Z,91.72
2017-10-14T01:02:50.911Z,91.79
2017-10-14T01:05:18.506Z,91.90
2017-10-14T01:07:45.922Z,92.08
2017-10-14T01:10:14.015Z,92.23
2017-10-14T01:12:41.780Z,92.06
2017-10-14T01:15:09.202Z,91.67
2017-10-14T01:17:36.643Z,90.88
2017-10-14T01:20:04.093Z,90.94
2017-10-14T01:22:31.526Z,91.00
2017-10-14T01:24:58.947Z,91.04
2017-10-14T01:27:26.717Z,90.70
2017-10-14T01:29:54.141Z,90.96
2017-10-14T01:32:21.556Z,91.20
2017-10-14T01:34:49.292Z,91.09
2017-10-14T01:37:16.707Z,91.08
2017-10-14T01:39:44.116Z,91.44
2017-10-14T01:42:11.591Z,91.78
2017-10-14T01:44:39.008Z,91.84
2017-10-14T01:47:06.488Z,91.99
2017-10-14T01:49:33.954Z,92.15
2017-10-14T01:52:01.396Z,92.22
2017-10-14T01:54:28.816Z,92.21
2017-10-14T01:56:56.299Z,92.34
2017-10-14T01:59:23.771Z,92.39
2017-10-14T02:01:51.334Z,92.36
2017-10-14T02:04:18.784Z,92.62
2017-10-14T02:06:46.727Z,92.76
2017-10-14T02:09:14.149Z,92.82
2017-10-14T02:11:42.428Z,92.90
2017-10-14T02:14:09.852Z,92.96
2017-10-14T02:16:37.268Z,93.12
2017-10-14T02:19:04.739Z,93.22
2017-10-14T02:21:32.175Z,93.17
2017-10-14T02:23:59.676Z,93.40
2017-10-14T02:26:27.176Z,93.44
2017-10-14T02:28:54.602Z,93.58
2017-10-14T02:31:22.016Z,93.61
2017-10-14T02:33:49.576Z,93.65
2017-10-14T02:36:17.028Z,93.67
2017-10-14T02:38:44.455Z,93.64
2017-10-14T02:41:12.061Z,93.67
2017-10-14T02:43:39.614Z,93.67
2017-10-14T02:46:07.090Z,93.69
2017-10-14T02:48:34.556Z,93.70
2017-10-14T02:51:02.107Z,93.50
2017-10-14T02:53:29.711Z,93.54
2017-10-14T02:55:57.522Z,93.81
2017-10-14T02:58:24.955Z,93.93
2017-10-14T03:00:52.396Z,93.93
2017-10-14T03:03:20.363Z,93.94
2017-10-14T03:05:47.784Z,94.00
2017-10-14T03:08:15.343Z,94.08
2017-10-14T03:10:42.855Z,94.17
2017-10-14T03:13:10.273Z,94.21
2017-10-14T03:15:37.715Z,94.36
2017-10-14T03:18:05.653Z,94.45
2017-10-14T03:20:33.075Z,94.47
2017-10-14T03:23:00.564Z,94.51
2017-10-14T03:25:28.426Z,94.43
2017-10-14T03:27:55.842Z,94.41
2017-10-14T03:30:23.297Z,94.45
2017-10-14T03:32:50.948Z,94.51
2017-10-14T03:35:18.386Z,94.53
2017-10-14T03:37:45.803Z,94.54
2017-10-14T03:40:13.689Z,94.46
2017-10-14T03:42:41.111Z,94.47
2017-10-14T03:45:08.538Z,94.48
2017-10-14T03:47:35.986Z,94.53
2017-10-14T03:50:03.430Z,94.69
2017-10-14T03:52:31.056Z,94.74
2017-10-14T03:54:58.537Z,94.89
2017-10-14T03:57:25.943Z,95.02
2017-10-14T03:59:53.463Z,95.05
2017-10-14T04:02:20.922Z,95.11
2017-10-14T04:04:48.344Z,95.16
2017-10-14T04:07:15.781Z,95.18
2017-10-14T04:09:43.236Z,95.21
2017-10-14T04:12:10.676Z,95.30
2017-10-14T04:14:38.186Z,95.41
2017-10-14T04:17:05.674Z,95.54
2017-10-14T04:19:33.181Z,95.50
2017-10-14T04:22:00.595Z,95.55
2017-10-14T04:24:28.216Z,95.52
2017-10-14T04:26:55.732Z,95.46
2017-10-14T04:29:23.349Z,95.48
2017-10-14T04:31:50.836Z,95.44
2017-10-14T04:34:18.264Z,95.37
2017-10-14T04:36:45.698Z,95.26
2017-10-14T04:39:13.267Z,95.26
2017-10-14T04:41:40.696Z,95.21
2017-10-14T04:44:08.125Z,95.13
2017-10-14T04:46:35.686Z,95.08
2017-10-14T04:49:03.191Z,95.12
2017-10-14T04:51:30.608Z,95.17
2017-10-14T04:53:58.089Z,95.16
2017-10-14T04:56:25.866Z,95.13
2017-10-14T04:58:53.292Z,95.14
2017-10-14T05:01:20.800Z,95.08
2017-10-14T05:03:48.220Z,95.10
2017-10-14T05:06:15.808Z,95.13
2017-10-14T05:08:43.787Z,95.26
2017-10-14T05:11:11.206Z,95.28
2017-10-14T05:13:38.755Z,95.18
2017-10-14T05:16:06.754Z,95.15
2017-10-14T05:18:34.387Z,95.04
2017-10-14T05:21:01.859Z,95.08
2017-10-14T05:23:29.314Z,94.98
2017-10-14T05:25:56.739Z,94.98
2017-10-14T05:28:24.170Z,94.85
2017-10-14T05:30:51.630Z,94.92
2017-10-14T05:33:19.114Z,94.94
2017-10-14T05:35:46.598Z,94.96
2017-10-14T05:38:14.073Z,95.04
2017-10-14T05:40:41.507Z,94.88
2017-10-14T05:43:08.920Z,94.83
2017-10-14T05:45:36.394Z,94.92
2017-10-14T05:48:03.816Z,95.15
2017-10-14T05:50:31.248Z,95.24
2017-10-14T05:52:59.065Z,95.21
2017-10-14T05:55:26.500Z,95.01
2017-10-14T05:57:53.932Z,94.90
2017-10-14T06:00:21.803Z,94.90
2017-10-14T06:02:49.299Z,94.96
2017-10-14T06:05:16.740Z,95.02
2017-10-14T06:07:44.199Z,94.99
2017-10-14T06:10:11.633Z,95.01
2017-10-14T06:12:39.118Z,95.00
2017-10-14T06:15:06.576Z,94.96
2017-10-14T06:17:34.012Z,94.89
2017-10-14T06:20:01.448Z,94.76
2017-10-14T06:22:28.932Z,94.74
2017-10-14T06:24:56.446Z,94.77
2017-10-14T06:27:23.875Z,94.89
2017-10-14T06:29:51.403Z,94.98
2017-10-14T06:32:18.847Z,95.04
2017-10-14T06:34:46.271Z,94.95
2017-10-14T06:37:13.751Z,94.96
2017-10-14T06:39:41.173Z,95.01
2017-10-14T06:42:08.589Z,95.00
2017-10-14T06:44:36.247Z,94.70
2017-10-14T06:47:03.684Z,94.49
2017-10-14T06:49:31.117Z,94.53
2017-10-14T06:51:58.914Z,94.47
2017-10-14T06:54:26.357Z,94.55
2017-10-14T06:56:53.912Z,94.67
2017-10-14T06:59:21.786Z,94.46
2017-10-14T07:01:49.260Z,94.55
2017-10-14T07:04:16.697Z,94.22
2017-10-14T07:06:44.453Z,94.34
2017-10-14T07:09:11.939Z,94.36
2017-10-14T07:11:39.445Z,94.15
2017-10-14T07:14:06.885Z,93.79
2017-10-14T07:16:34.349Z,93.65
2017-10-14T07:19:01.773Z,93.21
2017-10-14T07:21:29.242Z,92.96
2017-10-14T07:23:56.811Z,93.71
2017-10-14T07:26:24.338Z,93.59
2017-10-14T07:28:51.804Z,93.51
2017-10-14T07:31:19.234Z,94.20
2017-10-14T07:33:46.672Z,93.87
2017-10-14T07:36:14.160Z,93.87
2017-10-14T07:38:41.593Z,94.23
2017-10-14T07:41:09.026Z,94.23
2017-10-14T07:43:36.614Z,94.16
2017-10-14T07:46:04.161Z,94.34
2017-10-14T07:48:31.757Z,94.39
2017-10-14T07:50:59.707Z,94.29
2017-10-14T07:53:27.127Z,94.07
2017-10-14T07:55:54.558Z,94.05
2017-10-14T07:58:22.044Z,93.46
2017-10-14T08:00:49.481Z,93.46
2017-10-14T08:03:16.908Z,93.47
2017-10-14T08:05:45.064Z,93.59
2017-10-14T08:08:12.599Z,93.38
2017-10-14T08:10:40.286Z,93.33
2017-10-14T08:13:07.815Z,93.35
2017-10-14T08:15:35.356Z,93.75
2017-10-14T08:18:02.780Z,93.09
2017-10-14T08:20:30.288Z,93.01
2017-10-14T08:22:57.809Z,93.43
2017-10-14T08:25:25.265Z,93.38
2017-10-14T08:27:53.078Z,93.57
2017-10-14T08:30:20.492Z,93.50
2017-10-14T08:32:48.008Z,93.27
2017-10-14T08:35:15.543Z,93.36
2017-10-14T08:37:42.964Z,93.25
2017-10-14T08:40:10.389Z,93.42
2017-10-14T08:42:37.836Z,93.18
2017-10-14T08:45:05.280Z,92.43
2017-10-14T08:47:32.711Z,92.70
2017-10-14T08:50:00.182Z,93.04
2017-10-14T08:52:27.623Z,92.74
2017-10-14T08:54:55.060Z,92.51
2017-10-14T08:57:22.578Z,92.24
2017-10-14T08:59:50.008Z,92.09
2017-10-14T09:02:17.443Z,91.90
2017-10-14T09:04:44.941Z,91.47
2017-10-14T09:07:12.354Z,91.78
2017-10-14T09:09:39.782Z,92.09
2017-10-14T09:12:07.619Z,91.99
2017-10-14T09:14:36.031Z,91.87
2017-10-14T09:17:03.462Z,91.42
2017-10-14T09:19:31.283Z,91.55
2017-10-14T09:21:58.754Z,91.77
2017-10-14T09:24:26.181Z,91.58
2017-10-14T09:26:54.103Z,91.92
2017-10-14T09:29:21.569Z,92.04
2017-10-14T09:31:49.005Z,92.12
2017-10-14T09:34:16.556Z,91.42
2017-10-14T09:36:43.989Z,91.47
2017-10-14T09:39:11.406Z,90.46
2017-10-14T09:41:38.916Z,90.69
2017-10-14T09:44:06.338Z,90.93
2017-10-14T09:58:27.058Z,69.04
2017-10-14T10:00:57.558Z,70.05
2017-10-14T10:03:25.417Z,69.44
2017-10-14T10:06:02.747Z,71.46
2017-10-14T10:08:31.756Z,73.60
2017-10-14T10:10:59.826Z,75.14
2017-10-14T10:13:28.325Z,76.39
2017-10-14T10:15:56.224Z,77.88
2017-10-14T10:18:23.766Z,78.50
2017-10-14T10:23:25.267Z,78.29
2017-10-14T10:25:53.788Z,78.19
2017-10-14T10:28:22.736Z,78.61
2017-10-14T10:30:52.490Z,78.43
2017-10-14T10:33:20.694Z,78.68
2017-10-14T10:35:49.665Z,78.91
2017-10-14T10:38:17.931Z,78.46
2017-10-14T10:40:46.281Z,77.46
2017-10-14T10:43:16.407Z,77.33
2017-10-14T10:45:44.305Z,77.07
2017-10-14T10:48:12.033Z,76.56
2017-10-14T10:50:40.520Z,75.56
2017-10-14T10:53:08.510Z,76.10
2017-10-14T10:55:40.231Z,76.51
2017-10-14T10:58:15.550Z,76.57
2017-10-14T11:00:50.999Z,75.47
2017-10-14T11:03:19.183Z,76.52
2017-10-14T11:05:47.935Z,75.86
2017-10-14T11:08:16.433Z,76.16
2017-10-14T11:10:44.365Z,75.92
2017-10-14T11:13:12.382Z,76.25
2017-10-14T11:15:40.381Z,76.30
2017-10-14T11:18:10.207Z,75.68
2017-10-14T11:20:38.367Z,75.50
2017-10-14T11:23:06.182Z,74.96
2017-10-14T11:25:34.473Z,74.89
2017-10-14T11:28:02.237Z,74.04
2017-10-14T11:57:45.272Z,71.15
2017-10-14T12:00:13.032Z,70.09
2017-10-14T12:02:40.592Z,71.56
2017-10-14T12:05:08.638Z,70.18
2017-10-14T12:07:36.253Z,69.50
2017-10-14T12:12:41.912Z,69.13
2017-10-14T12:15:10.825Z,68.63
2017-10-14T12:17:38.345Z,68.99
2017-10-14T12:20:06.998Z,68.13
2017-10-14T12:22:35.302Z,67.42
2017-10-14T12:25:03.813Z,66.89
2017-10-14T12:27:31.627Z,66.97
2017-10-14T12:29:59.190Z,66.55
2017-10-14T12:32:26.798Z,65.87
2017-10-14T12:34:54.796Z,66.11
2017-10-14T12:37:22.348Z,65.32
2017-10-14T12:39:49.845Z,65.81
2017-10-14T12:42:17.367Z,65.44
2017-10-14T12:44:45.019Z,64.67
2017-10-14T12:47:12.698Z,64.70
2017-10-14T12:49:40.327Z,63.72
2017-10-14T12:52:09.779Z,63.56
2017-10-14T12:54:43.911Z,64.14
2017-10-14T12:57:12.084Z,62.88
2017-10-14T12:59:39.776Z,61.95
2017-10-14T13:02:08.807Z,61.05
2017-10-14T13:04:36.674Z,60.59
2017-10-14T13:07:04.178Z,58.84
2017-10-14T13:09:31.895Z,58.08
2017-10-14T13:11:59.564Z,58.20
2017-10-14T13:14:27.020Z,57.51
2017-10-14T13:16:55.171Z,57.90
2017-10-14T13:19:23.755Z,57.47
2017-10-14T13:21:51.224Z,57.06
2017-10-14T13:24:18.818Z,57.32
2017-10-14T13:26:46.468Z,57.25
2017-10-14T13:29:14.136Z,57.33
2017-10-14T13:31:42.975Z,58.54
2017-10-14T13:34:10.776Z,58.04
2017-10-14T13:36:38.487Z,58.22
2017-10-14T13:39:06.318Z,58.23
2017-10-14T13:41:36.024Z,58.51
2017-10-14T13:44:03.703Z,59.31
2017-10-14T13:46:31.336Z,58.74
2017-10-14T13:48:58.838Z,58.31
2017-10-14T13:51:26.519Z,58.65
2017-10-14T13:53:54.511Z,58.53
2017-10-14T13:56:21.999Z,58.68
2017-10-14T13:58:49.464Z,59.15
2017-10-14T14:01:16.989Z,58.90
2017-10-14T14:03:44.498Z,59.19
2017-10-14T14:06:12.147Z,59.61
2017-10-14T14:08:42.744Z,59.13
2017-10-14T14:11:11.586Z,59.37
2017-10-14T14:13:39.192Z,59.49
2017-10-14T14:16:06.790Z,59.04
2017-10-14T14:18:34.280Z,59.13
2017-10-14T14:21:01.846Z,59.24
2017-10-14T14:23:29.866Z,59.23
2017-10-14T14:25:57.692Z,59.43
2017-10-14T14:28:26.003Z,58.65
2017-10-14T14:30:54.587Z,58.84
2017-10-14T14:33:22.775Z,59.02
2017-10-14T14:35:50.321Z,59.08
2017-10-14T14:38:17.918Z,59.40
2017-10-14T14:40:45.577Z,59.04
2017-10-14T14:43:13.125Z,58.65
2017-10-14T14:45:40.859Z,58.81
2017-10-14T14:48:08.317Z,58.54
2017-10-14T14:50:35.868Z,58.92
2017-10-14T14:53:04.683Z,58.67
2017-10-14T14:55:32.322Z,58.46
2017-10-14T14:57:59.827Z,58.65
2017-10-14T15:00:27.472Z,58.95
2017-10-14T15:02:55.328Z,59.21
2017-10-14T15:05:23.014Z,58.69
2017-10-14T15:07:51.562Z,58.66
2017-10-14T15:10:19.019Z,61.04
2017-10-14T15:12:47.539Z,62.36
2017-10-14T15:15:15.257Z,63.80
2017-10-14T15:17:42.733Z,64.72
2017-10-14T15:20:10.334Z,65.41
2017-10-14T15:22:38.892Z,65.78
2017-10-14T15:25:06.545Z,66.41
2017-10-14T15:27:34.593Z,66.67
2017-10-14T15:30:02.183Z,66.70
2017-10-14T15:32:30.442Z,67.13
2017-10-14T15:34:58.114Z,67.94
2017-10-14T15:37:26.115Z,68.44
2017-10-14T15:39:53.658Z,69.03
2017-10-14T15:42:21.170Z,69.57
2017-10-14T15:44:48.757Z,70.14
2017-10-14T15:47:16.266Z,71.06
2017-10-14T15:49:45.735Z,71.70
2017-10-14T15:52:13.823Z,72.38
2017-10-14T15:54:41.405Z,73.34
2017-10-14T15:57:08.966Z,74.27
2017-10-14T15:59:37.532Z,75.03
2017-10-14T16:02:06.017Z,75.80
2017-10-14T16:04:33.541Z,76.36
2017-10-14T16:07:01.473Z,76.94
2017-10-14T16:09:28.977Z,77.64
2017-10-14T16:11:56.747Z,78.29
2017-10-14T16:14:24.269Z,78.76
2017-10-14T16:16:51.810Z,79.29
2017-10-14T16:19:20.321Z,79.68
2017-10-14T16:36:12.855Z,81.95
2017-10-14T16:38:40.587Z,82.11
2017-10-14T16:41:08.073Z,82.34
2017-10-14T16:43:35.839Z,82.56
2017-10-14T16:46:03.279Z,82.67
2017-10-14T16:48:30.726Z,82.80
2017-10-14T16:50:58.357Z,82.98
2017-10-14T16:53:25.955Z,83.17
2017-10-14T16:55:53.746Z,83.44
2017-10-14T16:58:21.688Z,83.64
2017-10-14T17:00:49.387Z,83.89
2017-10-14T17:03:17.038Z,84.22
2017-10-14T17:05:45.206Z,84.55
2017-10-14T17:08:12.865Z,84.88
2017-10-14T17:10:40.358Z,85.22
2017-10-14T17:13:16.266Z,85.49
2017-10-14T17:15:43.808Z,85.80
2017-10-14T17:18:13.445Z,85.90
2017-10-14T17:20:43.287Z,86.09
2017-10-14T17:23:27.786Z,86.26
2017-10-14T17:25:55.425Z,86.45
2017-10-14T17:28:23.122Z,86.63
2017-10-14T17:30:50.701Z,86.87
2017-10-14T17:33:18.320Z,87.07
2017-10-14T17:35:45.828Z,87.16
2017-10-14T17:38:13.513Z,87.37
2017-10-14T17:40:41.075Z,87.62
2017-10-14T17:43:08.558Z,87.86
2017-10-14T17:45:36.041Z,88.02
2017-10-14T17:48:03.953Z,88.19
2017-10-14T17:50:31.433Z,88.28
2017-10-14T17:52:59.097Z,88.45
2017-10-14T17:55:26.780Z,88.58
2017-10-14T17:57:54.462Z,88.61
2017-10-14T18:00:22.237Z,88.67
2017-10-14T18:02:51.050Z,88.73
2017-10-14T18:05:20.301Z,88.82
2017-10-14T18:07:48.968Z,88.84
2017-10-14T18:10:16.591Z,88.98
2017-10-14T18:12:44.225Z,89.09
2017-10-14T18:15:11.761Z,89.28
2017-10-14T18:17:40.568Z,89.37
2017-10-14T18:20:09.493Z,89.44
2017-10-14T18:22:37.116Z,89.73
2017-10-14T18:25:04.758Z,89.80
2017-10-14T18:27:32.248Z,89.86
2017-10-14T18:29:59.792Z,90.13
2017-10-14T18:32:28.053Z,90.29
2017-10-14T18:34:55.596Z,90.45
2017-10-14T18:37:23.252Z,90.41
2017-10-14T18:39:52.164Z,90.56
2017-10-14T18:42:20.184Z,90.84
2017-10-14T18:44:50.145Z,91.11
2017-10-14T18:47:18.303Z,91.22
2017-10-14T18:49:45.811Z,91.25
2017-10-14T18:52:13.356Z,91.26
2017-10-14T18:54:41.044Z,91.23
2017-10-14T18:57:08.644Z,91.27
2017-10-14T18:59:36.542Z,91.38
2017-10-14T19:02:04.395Z,91.51
2017-10-14T19:04:32.058Z,91.65
2017-10-14T19:06:59.666Z,91.70
2017-10-14T19:09:27.474Z,91.76
2017-10-14T19:11:55.038Z,92.00
2017-10-14T19:14:22.684Z,92.17
2017-10-14T19:16:50.421Z,92.33
2017-10-14T19:19:18.101Z,92.30
2017-10-14T19:21:45.794Z,92.42
2017-10-14T19:24:13.671Z,92.44
2017-10-14T19:26:41.285Z,92.48
2017-10-14T19:29:08.913Z,92.54
2017-10-14T19:31:36.456Z,92.75
2017-10-14T19:34:04.337Z,92.95
2017-10-14T19:36:31.987Z,93.18
2017-10-14T19:38:59.792Z,93.30
2017-10-14T19:41:28.223Z,93.51
2017-10-14T19:43:55.801Z,93.44
2017-10-14T19:46:23.455Z,93.57
2017-10-14T19:48:51.022Z,93.70
2017-10-14T19:51:18.597Z,93.70
2017-10-14T19:53:46.196Z,93.65
2017-10-14T19:56:13.877Z,93.67
2017-10-14T19:58:41.715Z,93.57
2017-10-14T20:01:11.261Z,93.57
2017-10-14T20:03:38.960Z,93.67
2017-10-14T20:06:06.478Z,93.78
2017-10-14T20:08:34.455Z,93.68
2017-10-14T20:11:03.204Z,93.91
2017-10-14T20:13:30.877Z,94.22
2017-10-14T20:15:58.439Z,93.97
2017-10-14T20:18:26.101Z,93.99
2017-10-14T20:20:53.769Z,94.17
2017-10-14T20:23:21.434Z,94.37
2017-10-14T20:25:49.340Z,94.57
2017-10-14T20:28:17.091Z,94.75
2017-10-14T20:30:44.894Z,94.70
2017-10-14T20:33:12.686Z,94.86
2017-10-14T20:35:40.274Z,94.93
2017-10-14T20:38:08.016Z,95.04
2017-10-14T20:40:35.794Z,94.96
2017-10-14T20:43:03.456Z,94.85
2017-10-14T20:45:31.617Z,94.88
2017-10-14T20:48:03.207Z,94.89
2017-10-14T20:50:31.330Z,94.86
2017-10-14T20:52:59.352Z,94.66
2017-10-14T20:55:28.391Z,94.59
2017-10-14T20:57:56.181Z,94.63
2017-10-14T21:00:23.935Z,94.56
2017-10-14T21:02:51.588Z,94.63
2017-10-14T21:05:19.295Z,94.74
2017-10-14T21:07:46.848Z,94.86
2017-10-14T21:10:14.432Z,94.84
2017-10-14T21:12:43.037Z,94.87
2017-10-14T21:15:11.272Z,94.97
2017-10-14T21:17:38.998Z,95.05
2017-10-14T21:20:06.510Z,95.09
2017-10-14T21:22:34.072Z,95.17
2017-10-14T21:25:01.610Z,95.30
2017-10-14T21:27:29.475Z,95.41
2017-10-14T21:29:57.501Z,95.65
2017-10-14T21:32:25.092Z,95.92
2017-10-14T21:34:52.828Z,96.17
2017-10-14T21:37:20.920Z,96.32
2017-10-14T21:39:48.391Z,96.23
2017-10-14T21:42:15.959Z,96.30
2017-10-14T21:44:43.997Z,96.31
2017-10-14T21:47:11.629Z,96.37
2017-10-14T21:49:39.136Z,96.44
2017-10-14T21:52:07.178Z,96.29
2017-10-14T21:54:34.783Z,96.21
2017-10-14T21:57:02.462Z,96.21
2017-10-14T21:59:30.255Z,96.25
2017-10-14T22:01:57.970Z,96.31
2017-10-14T22:04:25.547Z,96.24
2017-10-14T22:06:53.551Z,96.17
2017-10-14T22:09:21.084Z,96.20
2017-10-14T22:11:48.886Z,96.26
2017-10-14T22:14:16.641Z,96.18
2017-10-14T22:16:44.403Z,96.18
2017-10-14T22:19:11.999Z,96.16
2017-10-14T22:21:41.499Z,96.26
2017-10-14T22:24:09.156Z,96.47
2017-10-14T22:26:36.850Z,96.47
2017-10-14T22:29:04.437Z,96.39
2017-10-14T22:31:32.023Z,96.24
2017-10-14T22:33:59.614Z,96.25
2017-10-14T22:36:27.090Z,96.29
2017-10-14T22:38:54.639Z,96.31
2017-10-14T22:41:22.195Z,96.55
2017-10-14T22:43:50.884Z,96.57
2017-10-14T22:46:18.464Z,96.43
2017-10-14T22:48:45.931Z,96.40
2017-10-14T22:51:13.463Z,96.54
2017-10-14T22:53:40.929Z,96.53
2017-10-14T22:56:08.420Z,96.48
2017-10-14T22:58:35.978Z,96.49
2017-10-14T23:01:03.456Z,96.57
2017-10-14T23:03:30.954Z,96.72
2017-10-14T23:05:58.509Z,96.76
2017-10-14T23:08:26.072Z,96.79
2017-10-14T23:10:53.529Z,96.79
2017-10-14T23:13:21.096Z,96.85
2017-10-14T23:15:48.551Z,96.85
2017-10-14T23:18:16.096Z,96.72
2017-10-14T23:20:44.139Z,96.74
2017-10-14T23:23:11.725Z,96.79
2017-10-14T23:25:39.191Z,96.59
2017-10-14T23:28:06.864Z,96.51
2017-10-14T23:30:34.307Z,96.47
2017-10-14T23:33:01.895Z,96.44
2017-10-14T23:35:29.406Z,96.65
2017-10-14T23:37:56.862Z,96.75
2017-10-14T23:40:24.320Z,96.82
2017-10-14T23:42:51.898Z,96.97
2017-10-14T23:45:19.518Z,97.03
2017-10-14T23:47:47.113Z,97.05
2017-10-14T23:50:14.665Z,97.10
2017-10-14T23:52:42.125Z,97.10
2017-10-14T23:55:09.626Z,97.09
2017-10-14T23:57:37.260Z,97.03
